Time;durP1;ratioP1;P1;durP2;ratioP2;P2;SDS_P1;SDS_P2;PMS_P1;PMS_P2;Temp;Humidity;BMP_temperature;BMP_pressure;BME280_temperature;BME280_humidity;BME280_pressure;Samples;Min_cycle;Max_cycle;Signal;HPM_P1;HPM_P2
2023/11/01 00:02:21;;;;;;;2.72;0.95;;;;;;;10.02;100.00;99709.75;5167868;28;20030;-76
2023/11/01 00:04:51;;;;;;;1.67;0.85;;;;;;;9.96;100.00;99703.97;5166124;28;20036;-76
2023/11/01 00:07:21;;;;;;;3.20;1.10;;;;;;;10.00;100.00;99706.34;5166314;28;20537;-76
2023/11/01 00:09:51;;;;;;;1.55;1.00;;;;;;;10.01;100.00;99715.03;5161721;28;20039;-76
2023/11/01 00:12:22;;;;;;;2.63;1.05;;;;;;;9.95;100.00;99712.69;5165838;28;20529;-76
2023/11/01 00:14:52;;;;;;;3.30;1.10;;;;;;;9.92;100.00;99702.41;5164191;28;20113;-76
2023/11/01 00:17:22;;;;;;;6.43;1.35;;;;;;;10.04;100.00;99694.03;5166634;28;20025;-75
2023/11/01 00:19:54;;;;;;;4.15;1.60;;;;;;;10.04;100.00;99689.69;5164230;28;20073;-75
2023/11/01 00:22:24;;;;;;;4.25;1.80;;;;;;;10.12;100.00;99694.50;5162072;28;20089;-73
2023/11/01 00:24:54;;;;;;;2.92;1.50;;;;;;;10.14;100.00;99690.09;5166625;28;20033;-75
2023/11/01 00:27:25;;;;;;;5.03;1.80;;;;;;;10.05;100.00;99687.91;5158260;28;20121;-74
2023/11/01 00:29:55;;;;;;;3.10;1.65;;;;;;;10.12;100.00;99689.28;5163072;28;20113;-76
2023/11/01 00:32:25;;;;;;;3.83;1.42;;;;;;;10.17;100.00;99695.16;5167132;28;20030;-74
2023/11/01 00:34:56;;;;;;;6.68;1.90;;;;;;;10.17;100.00;99687.31;5163004;28;20037;-75
2023/11/01 00:37:26;;;;;;;3.40;1.48;;;;;;;10.16;100.00;99683.03;5165664;28;20030;-73
2023/11/01 00:39:56;;;;;;;3.65;1.83;;;;;;;10.17;100.00;99684.72;5161268;28;20439;-76
2023/11/01 00:42:27;;;;;;;3.65;1.80;;;;;;;10.17;100.00;99688.16;5164771;28;20026;-74
2023/11/01 00:44:57;;;;;;;3.05;1.88;;;;;;;10.25;100.00;99685.19;5156385;28;20543;-76
2023/11/01 00:47:27;;;;;;;5.53;2.08;;;;;;;10.17;100.00;99687.31;5165001;28;20034;-75
2023/11/01 00:49:58;;;;;;;6.13;2.20;;;;;;;10.19;100.00;99681.09;5163760;28;20089;-75
2023/11/01 00:52:28;;;;;;;4.80;1.90;;;;;;;10.11;100.00;99683.25;5167353;28;20040;-76
2023/11/01 00:54:58;;;;;;;4.07;2.00;;;;;;;10.12;100.00;99690.16;5167854;28;20034;-76
2023/11/01 00:57:29;;;;;;;5.00;2.15;;;;;;;10.19;100.00;99696.75;5165441;28;20495;-75
2023/11/01 01:00:00;;;;;;;3.95;2.10;;;;;;;10.29;100.00;99697.16;5163321;28;20146;-74
2023/11/01 01:02:30;;;;;;;5.15;2.35;;;;;;;10.29;100.00;99694.53;5163000;28;20033;-75
2023/11/01 01:05:01;;;;;;;3.35;2.03;;;;;;;10.36;100.00;99688.13;5163948;28;20026;-75
2023/11/01 01:07:31;;;;;;;4.47;1.98;;;;;;;10.41;100.00;99688.75;5166491;28;20080;-75
2023/11/01 01:10:02;;;;;;;5.15;2.42;;;;;;;10.44;100.00;99685.97;5167021;28;20507;-74
2023/11/01 01:12:32;;;;;;;4.93;2.20;;;;;;;10.40;100.00;99680.06;5166396;28;20026;-76
2023/11/01 01:15:03;;;;;;;3.70;2.10;;;;;;;10.40;100.00;99684.44;5161565;28;20023;-76
2023/11/01 01:17:34;;;;;;;4.47;2.25;;;;;;;10.36;100.00;99682.91;5166214;28;20018;-76
2023/11/01 01:20:05;;;;;;;4.13;2.13;;;;;;;10.40;100.00;99684.44;5160617;28;20029;-77
2023/11/01 01:22:35;;;;;;;4.80;2.28;;;;;;;10.33;100.00;99685.66;5165719;28;20028;-75
2023/11/01 01:25:06;;;;;;;4.47;2.38;;;;;;;10.32;100.00;99686.59;5165710;28;20077;-77
2023/11/01 01:27:36;;;;;;;6.00;2.50;;;;;;;10.36;100.00;99683.72;5167523;28;20030;-77
2023/11/01 01:30:08;;;;;;;4.22;2.47;;;;;;;10.44;100.00;99688.56;5168817;28;20496;-76
2023/11/01 01:32:38;;;;;;;4.93;2.85;;;;;;;10.42;100.00;99687.81;5165575;28;20717;-77
2023/11/01 01:35:09;;;;;;;4.10;2.83;;;;;;;10.41;100.00;99683.50;5165003;28;20033;-78
2023/11/01 01:37:40;;;;;;;7.50;2.58;;;;;;;10.41;100.00;99680.91;5165894;28;20108;-76
2023/11/01 01:40:10;;;;;;;5.78;2.70;;;;;;;10.51;100.00;99682.97;5157092;28;20045;-76
2023/11/01 01:42:41;;;;;;;4.10;2.47;;;;;;;10.51;100.00;99690.81;5165515;28;20026;-78
2023/11/01 01:45:11;;;;;;;4.78;2.50;;;;;;;10.54;100.00;99685.44;5170506;28;20038;-77
2023/11/01 01:47:42;;;;;;;4.68;2.80;;;;;;;10.57;100.00;99684.44;5167466;28;20033;-76
2023/11/01 01:50:12;;;;;;;4.78;2.63;;;;;;;10.60;100.00;99682.53;5167647;28;20038;-76
2023/11/01 01:52:43;;;;;;;4.80;2.60;;;;;;;10.61;100.00;99685.97;5162033;28;20030;-77
2023/11/01 01:55:13;;;;;;;6.90;2.80;;;;;;;10.63;100.00;99678.91;5166927;28;20037;-78
2023/11/01 01:57:43;;;;;;;5.80;2.80;;;;;;;10.49;100.00;99676.16;5165595;28;20042;-77
2023/11/01 02:00:15;;;;;;;4.85;2.90;;;;;;;10.46;100.00;99684.13;5168791;28;20065;-77
2023/11/01 02:02:45;;;;;;;4.18;2.83;;;;;;;10.48;100.00;99688.38;5166960;28;20088;-78
2023/11/01 02:05:16;;;;;;;7.72;3.15;;;;;;;10.40;100.00;99689.66;5167769;28;20026;-73
2023/11/01 02:07:47;;;;;;;7.82;4.03;;;;;;;10.41;100.00;99687.00;5168954;28;20049;-76
2023/11/01 02:10:17;;;;;;;12.07;6.43;;;;;;;10.42;100.00;99687.81;5166856;28;20033;-77
2023/11/01 02:12:48;;;;;;;10.98;5.60;;;;;;;10.38;100.00;99684.50;5166977;28;20057;-77
2023/11/01 02:15:18;;;;;;;8.50;3.58;;;;;;;10.45;100.00;99687.66;5167661;28;20034;-76
2023/11/01 02:17:48;;;;;;;4.90;3.03;;;;;;;10.40;100.00;99684.44;5167636;28;20025;-76
2023/11/01 02:20:19;;;;;;;5.07;2.85;;;;;;;10.45;100.00;99679.81;5168335;28;20040;-73
2023/11/01 02:22:49;;;;;;;4.40;2.75;;;;;;;10.46;100.00;99673.69;5163985;28;20061;-77
2023/11/01 02:25:19;;;;;;;4.97;2.55;;;;;;;10.53;100.00;99665.47;5164212;28;20478;-76
2023/11/01 02:27:50;;;;;;;6.28;2.63;;;;;;;10.58;100.00;99668.72;5161318;28;20033;-78
2023/11/01 02:30:20;;;;;;;4.55;2.38;;;;;;;10.67;100.00;99667.41;5167063;28;20535;-76
2023/11/01 02:32:51;;;;;;;8.60;2.38;;;;;;;10.72;100.00;99666.22;5165572;28;20479;-76
2023/11/01 02:35:22;;;;;;;4.88;2.03;;;;;;;10.79;100.00;99656.31;5168485;28;20033;-77
2023/11/01 02:37:52;;;;;;;9.35;2.00;;;;;;;10.79;100.00;99662.41;5164696;28;20488;-77
2023/11/01 02:40:23;;;;;;;2.15;1.60;;;;;;;10.77;100.00;99666.00;5168758;28;20070;-77
2023/11/01 02:42:55;;;;;;;2.72;1.23;;;;;;;10.81;100.00;99670.13;5159371;28;20023;-77
2023/11/01 02:45:25;;;;;;;4.18;1.65;;;;;;;10.77;100.00;99669.47;5164227;28;20049;-75
2023/11/01 02:47:56;;;;;;;8.68;3.25;;;;;;;10.76;100.00;99656.47;5165013;28;20125;-77
2023/11/01 02:50:26;;;;;;;10.45;4.80;;;;;;;10.67;100.00;99662.19;5168158;28;20038;-78
2023/11/01 02:52:56;;;;;;;4.00;1.73;;;;;;;10.77;100.00;99655.53;5165451;28;20432;-77
2023/11/01 02:55:27;;;;;;;3.63;1.60;;;;;;;10.78;100.00;99652.88;5168519;28;20319;-76
2023/11/01 02:57:57;;;;;;;7.63;2.53;;;;;;;10.66;100.00;99650.03;5168171;28;20486;-78
2023/11/01 03:00:28;;;;;;;6.32;1.60;;;;;;;10.66;100.00;99645.63;5161735;28;20117;-75
2023/11/01 03:02:58;;;;;;;4.75;2.08;;;;;;;10.67;100.00;99641.28;5160740;28;20026;-77
2023/11/01 03:05:29;;;;;;;4.07;1.98;;;;;;;10.67;100.00;99638.66;5164392;28;20025;-75
2023/11/01 03:07:59;;;;;;;5.20;2.00;;;;;;;10.61;100.00;99641.56;5166960;28;20040;-77
2023/11/01 03:10:30;;;;;;;4.75;2.30;;;;;;;10.59;100.00;99632.97;5163698;28;20030;-74
2023/11/01 03:13:01;;;;;;;4.38;2.17;;;;;;;10.60;100.00;99645.09;5163630;28;20022;-78
2023/11/01 03:15:31;;;;;;;3.70;2.13;;;;;;;10.57;100.00;99647.88;5166861;28;20065;-78
2023/11/01 03:18:01;;;;;;;4.78;2.40;;;;;;;10.50;100.00;99649.94;5163273;28;20105;-77
2023/11/01 03:20:33;;;;;;;4.75;2.17;;;;;;;10.51;100.00;99645.59;5161087;28;20251;-77
2023/11/01 03:23:03;;;;;;;4.57;2.17;;;;;;;10.48;100.00;99641.34;5163868;28;20045;-77
2023/11/01 03:25:34;;;;;;;3.42;2.10;;;;;;;10.39;100.00;99648.78;5169128;28;20029;-77
2023/11/01 03:28:04;;;;;;;2.78;1.85;;;;;;;10.47;100.00;99638.78;5167629;28;20049;-77
2023/11/01 03:30:34;;;;;;;3.70;1.98;;;;;;;10.46;100.00;99643.19;5165468;28;20302;-77
2023/11/01 03:33:05;;;;;;;5.95;2.10;;;;;;;10.49;100.00;99635.19;5164942;28;20030;-77
2023/11/01 03:35:35;;;;;;;4.43;2.10;;;;;;;10.56;100.00;99628.75;5163116;28;20059;-76
2023/11/01 03:38:05;;;;;;;6.45;2.00;;;;;;;10.58;100.00;99631.28;5165643;28;20094;-76
2023/11/01 03:40:35;;;;;;;2.97;2.00;;;;;;;10.57;100.00;99629.59;5160813;28;20168;-75
2023/11/01 03:43:06;;;;;;;4.05;1.90;;;;;;;10.51;100.00;99629.91;5166021;28;20330;-76
2023/11/01 03:45:36;;;;;;;3.25;2.10;;;;;;;10.42;100.00;99635.56;5169058;28;20419;-74
2023/11/01 03:48:07;;;;;;;4.28;1.90;;;;;;;10.41;100.00;99631.28;5165356;28;20045;-77
2023/11/01 03:50:38;;;;;;;2.30;1.70;;;;;;;10.34;100.00;99620.28;5163383;28;20029;-76
2023/11/01 03:53:08;;;;;;;2.50;1.83;;;;;;;10.27;100.00;99620.66;5165344;28;20399;-77
2023/11/01 03:55:38;;;;;;;2.72;1.70;;;;;;;10.26;100.00;99627.66;5164330;28;20030;-77
2023/11/01 03:58:09;;;;;;;2.58;1.70;;;;;;;10.19;100.00;99625.44;5165702;28;20046;-78
2023/11/01 04:00:39;;;;;;;3.60;2.03;;;;;;;10.20;100.00;99619.28;5162766;28;20508;-78
2023/11/01 04:03:09;;;;;;;3.78;2.10;;;;;;;10.22;100.00;99620.06;5163656;28;20098;-78
2023/11/01 04:05:40;;;;;;;2.97;1.88;;;;;;;10.11;100.00;99635.38;5163969;28;20032;-76
2023/11/01 04:08:10;;;;;;;3.00;2.10;;;;;;;10.04;100.00;99628.78;5161837;28;20026;-76
2023/11/01 04:10:41;;;;;;;5.40;2.00;;;;;;;9.98;100.00;99629.88;5159823;28;20133;-77
2023/11/01 04:13:11;;;;;;;9.35;4.57;;;;;;;9.92;100.00;99638.03;5162044;28;20030;-77
2023/11/01 04:15:42;;;;;;;11.63;5.10;;;;;;;9.93;100.00;99631.03;5164405;28;20022;-77
2023/11/01 04:18:12;;;;;;;5.70;3.22;;;;;;;9.95;100.00;99635.25;5165220;28;20068;-77
2023/11/01 04:20:42;;;;;;;7.55;2.50;;;;;;;9.98;100.00;99629.88;5163474;28;20029;-78
2023/11/01 04:23:13;;;;;;;4.47;2.63;;;;;;;9.98;100.00;99623.84;5165669;28;20042;-78
2023/11/01 04:25:43;;;;;;;5.55;2.58;;;;;;;9.99;100.00;99621.13;5162924;28;20143;-76
2023/11/01 04:28:13;;;;;;;4.82;2.50;;;;;;;9.94;100.00;99614.44;5163557;28;20026;-77
2023/11/01 04:30:44;;;;;;;4.93;2.90;;;;;;;9.99;100.00;99612.47;5164502;28;20029;-78
2023/11/01 04:33:15;;;;;;;3.70;2.45;;;;;;;9.95;100.00;99613.53;5168475;28;20055;-78
2023/11/01 04:35:45;;;;;;;4.07;2.70;;;;;;;10.01;100.00;99616.72;5165885;28;20026;-77
2023/11/01 04:38:18;;;;;;;6.03;2.55;;;;;;;9.96;100.00;99621.28;5163001;28;20096;-77
2023/11/01 04:40:51;;;;;;;5.32;2.78;;;;;;;9.96;100.00;99615.25;5160424;28;20210;-74
2023/11/01 04:43:21;;;;;;;6.00;2.90;;;;;;;9.94;100.00;99617.06;5166775;28;20125;-77
2023/11/01 04:45:53;;;;;;;6.80;2.88;;;;;;;9.97;100.00;99619.53;5163438;28;20589;-76
2023/11/01 04:48:23;;;;;;;4.22;2.60;;;;;;;9.93;100.00;99607.53;5166796;28;20053;-76
2023/11/01 04:50:53;;;;;;;6.40;3.05;;;;;;;9.94;100.00;99617.06;5163487;28;20050;-77
2023/11/01 04:53:24;;;;;;;5.55;2.97;;;;;;;10.02;100.00;99614.97;5166589;28;20080;-75
2023/11/01 04:55:54;;;;;;;6.53;3.10;;;;;;;10.04;100.00;99610.53;5162103;28;20019;-77
2023/11/01 04:58:25;;;;;;;5.95;3.30;;;;;;;10.05;100.00;99604.38;5170247;28;20029;-74
2023/11/01 05:00:55;;;;;;;5.05;3.10;;;;;;;10.08;100.00;99596.38;5158031;28;20041;-77
2023/11/01 05:03:25;;;;;;;5.25;3.22;;;;;;;10.12;100.00;99601.38;5164454;28;20026;-75
2023/11/01 05:05:55;;;;;;;6.60;3.10;;;;;;;10.20;100.00;99593.19;5163993;28;20480;-77
2023/11/01 05:08:26;;;;;;;5.20;2.92;;;;;;;10.20;100.00;99599.22;5164150;28;20022;-76
2023/11/01 05:10:56;;;;;;;6.90;3.17;;;;;;;10.25;100.00;99599.88;5169530;28;20093;-78
2023/11/01 05:13:27;;;;;;;5.78;3.33;;;;;;;10.26;100.00;99608.53;5170930;28;20025;-76
2023/11/01 05:15:57;;;;;;;4.35;2.88;;;;;;;10.31;100.00;99606.56;5163717;28;20022;-76
2023/11/01 05:18:27;;;;;;;5.35;3.28;;;;;;;10.29;100.00;99603.16;5169018;28;20029;-77
2023/11/01 05:20:58;;;;;;;5.03;2.85;;;;;;;10.39;100.00;99607.00;5167421;28;20030;-76
2023/11/01 05:23:29;;;;;;;5.25;3.10;;;;;;;10.33;100.00;99604.72;5160200;28;20057;-76
2023/11/01 05:25:59;;;;;;;4.55;3.15;;;;;;;10.42;100.00;99609.47;5168783;28;20042;-77
2023/11/01 05:28:29;;;;;;;3.92;2.85;;;;;;;10.44;100.00;99598.03;5175274;28;20030;-75
2023/11/01 05:31:00;;;;;;;5.43;2.40;;;;;;;10.45;100.00;99593.63;5169448;28;20041;-73
2023/11/01 05:33:31;;;;;;;4.97;2.88;;;;;;;10.51;100.00;99591.56;5168191;28;20023;-73
2023/11/01 05:36:06;;;;;;;4.88;2.65;;;;;;;10.48;100.00;99588.28;5168915;28;20049;-77
2023/11/01 05:38:36;;;;;;;6.22;2.80;;;;;;;10.49;100.00;99584.75;5171838;28;20476;-75
2023/11/01 05:41:08;;;;;;;6.60;3.08;;;;;;;10.49;100.00;99587.34;5169325;28;20068;-76
2023/11/01 05:43:39;;;;;;;5.22;2.80;;;;;;;10.45;100.00;99594.50;5165645;28;20547;-77
2023/11/01 05:46:09;;;;;;;5.85;3.15;;;;;;;10.44;100.00;99589.31;5170451;28;20124;-76
2023/11/01 05:48:40;;;;;;;4.63;2.85;;;;;;;10.50;100.00;99586.44;5163942;28;20045;-74
2023/11/01 05:51:10;;;;;;;4.60;2.97;;;;;;;10.49;100.00;99584.75;5169176;28;20098;-75
2023/11/01 05:53:40;;;;;;;5.57;2.85;;;;;;;10.55;100.00;99579.19;5168306;28;20443;-76
2023/11/01 05:56:11;;;;;;;7.03;3.20;;;;;;;10.47;100.00;99586.56;5166691;28;20022;-76
2023/11/01 05:58:42;;;;;;;5.43;3.22;;;;;;;10.50;100.00;99575.97;5169718;28;20030;-78
2023/11/01 06:01:13;;;;;;;4.10;2.88;;;;;;;10.47;100.00;99581.34;5170871;28;20116;-75
2023/11/01 06:03:43;;;;;;;5.22;2.92;;;;;;;10.48;100.00;99583.06;5172060;28;20133;-76
2023/11/01 06:06:15;;;;;;;6.18;3.10;;;;;;;10.50;100.00;99582.03;5175394;28;20109;-76
2023/11/01 06:08:45;;;;;;;6.22;3.00;;;;;;;10.56;100.00;99586.97;5161546;28;20053;-76
2023/11/01 06:11:15;;;;;;;6.53;2.95;;;;;;;10.52;100.00;99587.19;5166673;28;20113;-76
2023/11/01 06:13:46;;;;;;;4.57;2.78;;;;;;;10.51;100.00;99588.13;5165468;28;20030;-73
2023/11/01 06:16:16;;;;;;;6.90;3.20;;;;;;;10.57;100.00;99575.59;5170738;28;20049;-77
2023/11/01 06:18:47;;;;;;;7.85;3.03;;;;;;;10.58;100.00;99574.66;5167107;28;20475;-76
2023/11/01 06:21:17;;;;;;;4.38;2.50;;;;;;;10.57;100.00;99588.66;5174561;28;20045;-78
2023/11/01 06:23:47;;;;;;;3.70;2.40;;;;;;;10.60;100.00;99590.25;5170793;28;20034;-76
2023/11/01 06:26:19;;;;;;;4.55;2.80;;;;;;;10.54;100.00;99593.19;5165816;28;20065;-78
2023/11/01 06:28:49;;;;;;;4.75;2.60;;;;;;;10.57;100.00;99595.63;5166393;28;20061;-77
2023/11/01 06:31:21;;;;;;;6.00;2.35;;;;;;;10.60;100.00;99590.25;5170602;28;20057;-77
2023/11/01 06:33:51;;;;;;;5.63;2.40;;;;;;;10.63;100.00;99595.31;5169101;28;20038;-76
2023/11/01 06:36:22;;;;;;;4.55;2.60;;;;;;;10.65;100.00;99591.69;5175052;28;20196;-76
2023/11/01 06:38:52;;;;;;;3.45;1.95;;;;;;;10.72;100.00;99589.63;5167407;28;20034;-77
2023/11/01 06:41:22;;;;;;;4.60;2.10;;;;;;;10.73;100.00;99588.69;5168311;28;20446;-77
2023/11/01 06:43:53;;;;;;;3.28;2.10;;;;;;;10.76;100.00;99583.28;5168156;28;20026;-78
2023/11/01 06:46:23;;;;;;;4.95;2.20;;;;;;;10.77;100.00;99585.00;5175295;28;20028;-77
2023/11/01 06:48:54;;;;;;;16.83;2.78;;;;;;;10.84;100.00;99586.38;5169196;28;20681;-76
2023/11/01 06:51:24;;;;;;;5.53;2.22;;;;;;;10.92;100.00;99589.41;5174076;28;20104;-73
2023/11/01 06:53:54;;;;;;;4.88;2.13;;;;;;;10.91;100.00;99591.19;5167475;28;20614;-77
2023/11/01 06:56:24;;;;;;;4.18;2.30;;;;;;;10.95;100.00;99586.63;5174200;28;20039;-75
2023/11/01 06:58:55;;;;;;;5.13;1.90;;;;;;;10.83;100.00;99587.31;5171543;28;20511;-76
2023/11/01 07:01:25;;;;;;;3.92;2.17;;;;;;;10.88;100.00;99582.66;5173535;28;20026;-74
2023/11/01 07:03:55;;;;;;;8.98;2.28;;;;;;;10.95;100.00;99578.78;5168636;28;20034;-77
2023/11/01 07:06:26;;;;;;;6.10;2.03;;;;;;;11.00;100.00;99582.03;5171193;28;20080;-75
2023/11/01 07:08:56;;;;;;;4.18;1.98;;;;;;;10.94;100.00;99577.09;5170348;28;20043;-76
2023/11/01 07:11:26;;;;;;;3.47;1.95;;;;;;;11.03;100.00;99577.47;5172682;28;20587;-75
2023/11/01 07:13:57;;;;;;;4.05;2.00;;;;;;;11.02;100.00;99581.88;5166808;28;20053;-78
2023/11/01 07:16:27;;;;;;;4.30;2.03;;;;;;;11.07;100.00;99571.16;5172085;28;20030;-78
2023/11/01 07:19:00;;;;;;;7.60;2.15;;;;;;;11.07;100.00;99574.59;5171815;28;20101;-77
2023/11/01 07:21:31;;;;;;;3.97;1.75;;;;;;;11.15;100.00;99576.81;5166091;28;20049;-77
2023/11/01 07:24:01;;;;;;;6.50;1.88;;;;;;;11.11;100.00;99568.28;5196265;22;20085;-71
2023/11/01 07:26:31;;;;;;;5.25;2.05;;;;;;;11.11;100.00;99567.44;5180307;28;20030;-72
2023/11/01 07:29:02;;;;;;;3.95;1.70;;;;;;;11.19;100.00;99571.34;5175823;28;20409;-71
2023/11/01 07:31:33;;;;;;;2.55;1.42;;;;;;;11.21;100.00;99561.63;5177928;28;20026;-71
2023/11/01 07:34:03;;;;;;;4.05;1.88;;;;;;;11.30;100.00;99560.28;5182905;28;20283;-71
2023/11/01 07:36:33;;;;;;;5.75;1.83;;;;;;;11.34;100.00;99567.03;5186820;28;20466;-72
2023/11/01 07:39:03;;;;;;;6.40;2.10;;;;;;;11.47;100.00;99563.66;5186303;28;20021;-72
2023/11/01 07:41:36;;;;;;;3.90;1.40;;;;;;;11.49;100.00;99572.28;5188246;28;20017;-71
2023/11/01 07:44:06;;;;;;;5.85;1.60;;;;;;;11.50;100.00;99565.28;5184840;28;20049;-71
2023/11/01 07:46:36;;;;;;;4.22;1.70;;;;;;;11.52;100.00;99561.66;5187668;28;20026;-71
2023/11/01 07:49:07;;;;;;;2.88;1.50;;;;;;;11.45;100.00;99562.91;5184085;28;20034;-71
2023/11/01 07:51:37;;;;;;;4.82;1.50;;;;;;;11.52;100.00;99566.88;5186556;28;20499;-72
2023/11/01 07:54:09;;;;;;;4.57;1.45;;;;;;;11.63;100.00;99561.91;5186537;28;20033;-71
2023/11/01 07:56:39;;;;;;;5.43;1.88;;;;;;;11.66;100.00;99564.38;5186424;28;20030;-71
2023/11/01 07:59:10;;;;;;;4.10;1.52;;;;;;;11.76;100.00;99555.06;5185852;28;20030;-71
2023/11/01 08:01:41;;;;;;;5.90;1.90;;;;;;;11.87;100.00;99552.69;5187079;28;20029;-71
2023/11/01 08:04:12;;;;;;;7.25;1.60;;;;;;;11.95;100.00;99547.84;5186437;28;20038;-71
2023/11/01 08:06:44;;;;;;;3.60;1.52;;;;;;;11.97;100.00;99543.38;5186586;28;20578;-72
2023/11/01 08:09:15;;;;;;;5.40;1.80;;;;;;;12.03;100.00;99553.50;5186100;28;20041;-71
2023/11/01 08:11:45;;;;;;;3.08;1.40;;;;;;;12.35;100.00;99533.28;5185324;28;20079;-71
2023/11/01 08:14:15;;;;;;;4.15;1.50;;;;;;;12.26;100.00;99534.66;5186722;28;20041;-72
2023/11/01 08:16:47;;;;;;;3.03;1.25;;;;;;;12.29;100.00;99539.72;5185437;28;20029;-71
2023/11/01 08:19:18;;;;;;;5.85;1.52;;;;;;;12.30;100.00;99538.78;5186398;28;20581;-72
2023/11/01 08:21:48;;;;;;;4.00;1.42;;;;;;;12.32;100.00;99539.53;5180892;28;20064;-72
2023/11/01 08:24:18;;;;;;;5.72;1.70;;;;;;;12.23;100.00;99536.63;5187736;28;20032;-71
2023/11/01 08:26:49;;;;;;;2.72;1.10;;;;;;;12.36;100.00;99533.19;5186810;28;20034;-71
2023/11/01 08:29:19;;;;;;;3.85;1.10;;;;;;;12.45;100.00;99530.03;5187548;28;20371;-71
2023/11/01 08:31:49;;;;;;;4.63;1.10;;;;;;;12.38;100.00;99527.84;5185025;28;20026;-72
2023/11/01 08:34:19;;;;;;;4.10;1.00;;;;;;;12.34;100.00;99529.84;5189508;28;20049;-72
2023/11/01 08:36:50;;;;;;;3.40;1.08;;;;;;;12.35;100.00;99522.81;5186663;28;20038;-71
2023/11/01 08:39:20;;;;;;;5.38;1.05;;;;;;;12.35;100.00;99531.53;5189571;28;20498;-72
2023/11/01 08:41:50;;;;;;;2.33;0.90;;;;;;;12.43;100.00;99516.16;5184738;28;20046;-71
2023/11/01 08:44:20;;;;;;;3.30;1.00;;;;;;;12.44;100.00;99517.84;5189110;28;20642;-72
2023/11/01 08:46:51;;;;;;;2.30;0.90;;;;;;;12.51;100.00;99519.19;5188456;28;21446;-71
2023/11/01 08:49:21;;;;;;;4.35;1.48;;;;;;;12.60;100.00;99518.63;5192127;28;20238;-71
2023/11/01 08:51:52;;;;;;;3.13;1.10;;;;;;;12.53;100.00;99517.31;5186415;28;20041;-71
2023/11/01 08:54:24;;;;;;;4.50;0.98;;;;;;;12.50;100.00;99524.50;5191113;28;20035;-71
2023/11/01 08:56:54;;;;;;;2.65;0.82;;;;;;;12.68;100.00;99513.78;5188592;28;20083;-71
2023/11/01 08:59:25;;;;;;;4.03;1.00;;;;;;;12.61;100.00;99515.06;5191402;28;20029;-71
2023/11/01 09:01:55;;;;;;;3.22;0.98;;;;;;;12.47;100.00;99517.66;5188160;28;20037;-71
2023/11/01 09:04:25;;;;;;;6.35;1.15;;;;;;;12.51;100.00;99511.31;5191045;28;20022;-72
2023/11/01 09:06:57;;;;;;;3.72;1.17;;;;;;;12.48;100.00;99513.28;5185958;28;20026;-72
2023/11/01 09:09:29;;;;;;;2.30;0.90;;;;;;;12.57;100.00;99508.31;5191581;28;20437;-71
2023/11/01 09:11:59;;;;;;;3.15;1.02;;;;;;;12.59;100.00;99518.69;5189802;28;20036;-71
2023/11/01 09:14:30;;;;;;;3.42;1.33;;;;;;;12.56;100.00;99511.88;5190970;28;20033;-72
2023/11/01 09:17:00;;;;;;;1.25;0.85;;;;;;;12.56;100.00;99508.41;5187950;28;20406;-71
2023/11/01 09:19:30;;;;;;;4.35;0.90;;;;;;;12.50;100.00;99512.22;5191501;28;20026;-71
2023/11/01 09:22:01;;;;;;;3.53;0.90;;;;;;;12.48;100.00;99502.78;5187482;28;20561;-71
2023/11/01 09:24:31;;;;;;;4.43;1.00;;;;;;;12.46;100.00;99505.50;5190950;28;20029;-71
2023/11/01 09:27:03;;;;;;;6.90;1.02;;;;;;;12.49;100.00;99510.53;5187737;28;20037;-71
2023/11/01 09:29:34;;;;;;;4.30;1.05;;;;;;;12.43;100.00;99505.69;5190750;28;20438;-71
2023/11/01 09:32:05;;;;;;;2.10;0.80;;;;;;;12.37;100.00;99494.72;5188559;28;20635;-72
2023/11/01 09:34:35;;;;;;;2.25;0.73;;;;;;;12.42;100.00;99496.13;5190580;28;20029;-71
2023/11/01 09:37:05;;;;;;;3.25;0.88;;;;;;;12.43;100.00;99502.25;5186931;28;20025;-71
2023/11/01 09:39:36;;;;;;;12.07;1.27;;;;;;;12.41;100.00;99502.31;5191939;28;20100;-71
2023/11/01 09:42:14;;;;;;;4.50;0.98;;;;;;;12.37;100.00;99499.97;5182992;28;20037;-71
2023/11/01 09:44:47;;;;;;;2.75;1.05;;;;;;;12.40;100.00;99499.78;5184287;28;20469;-71
2023/11/01 09:47:18;;;;;;;2.80;0.95;;;;;;;12.43;100.00;99494.38;5180416;28;20081;-71
2023/11/01 09:49:49;;;;;;;3.03;1.10;;;;;;;12.44;100.00;99496.88;5184218;28;20336;-71
2023/11/01 09:52:21;;;;;;;5.22;1.40;;;;;;;12.48;100.00;99498.38;5180140;28;20538;-72
2023/11/01 09:54:52;;;;;;;3.85;1.35;;;;;;;12.45;100.00;99497.75;5178853;28;20513;-71
2023/11/01 09:57:24;;;;;;;4.80;1.30;;;;;;;12.51;100.00;99502.59;5181002;28;20061;-71
2023/11/01 09:59:55;;;;;;;4.70;1.48;;;;;;;12.52;100.00;99492.03;5180816;28;20112;-71
2023/11/01 10:02:25;;;;;;;2.67;1.10;;;;;;;12.55;100.00;99493.63;5186324;28;20132;-71
2023/11/01 10:04:56;;;;;;;4.35;1.42;;;;;;;12.66;100.00;99493.81;5181047;28;20052;-71
2023/11/01 10:07:27;;;;;;;3.80;1.65;;;;;;;12.69;100.00;99489.25;5180939;28;20049;-71
2023/11/01 10:09:57;;;;;;;4.47;1.20;;;;;;;12.79;100.00;99476.41;5181212;28;20113;-71
2023/11/01 10:12:27;;;;;;;3.45;1.17;;;;;;;12.77;100.00;99484.34;5180448;28;20080;-71
2023/11/01 10:14:58;;;;;;;3.72;1.17;;;;;;;12.78;100.00;99478.16;5181827;28;20622;-72
2023/11/01 10:17:28;;;;;;;1.95;0.98;;;;;;;12.72;100.00;99477.69;5180120;28;20022;-72
2023/11/01 10:19:58;;;;;;;2.42;0.90;;;;;;;12.70;100.00;99477.81;5181263;28;20026;-71
2023/11/01 10:22:29;;;;;;;3.72;1.00;;;;;;;12.78;100.00;99475.53;5183031;28;20029;-71
2023/11/01 10:24:59;;;;;;;3.38;1.05;;;;;;;12.75;100.00;99473.13;5181947;28;20092;-71
2023/11/01 10:27:38;;;;;;;2.45;1.00;;;;;;;12.71;100.00;99474.25;5184128;28;20495;-71
2023/11/01 10:30:09;;;;;;;3.42;0.80;;;;;;;12.79;100.00;99473.78;5181093;28;20492;-71
2023/11/01 10:32:40;;;;;;;4.43;0.98;;;;;;;12.74;100.00;99468.81;5180612;28;20037;-71
2023/11/01 10:35:11;;;;;;;3.20;1.20;;;;;;;12.84;100.00;99475.16;5181141;28;20495;-71
2023/11/01 10:37:42;;;;;;;2.35;0.80;;;;;;;12.78;100.00;99470.31;5180788;28;20026;-72
2023/11/01 10:40:14;;;;;;;3.83;0.90;;;;;;;12.81;100.00;99464.88;5184939;28;20061;-71
2023/11/01 10:42:45;;;;;;;5.57;1.08;;;;;;;12.95;100.00;99467.50;5180375;28;20032;-71
2023/11/01 10:45:15;;;;;;;3.30;1.02;;;;;;;13.07;100.00;99459.69;5187117;28;20030;-71
2023/11/01 10:47:47;;;;;;;2.75;1.15;;;;;;;13.15;100.00;99454.81;5180404;28;20038;-71
2023/11/01 10:50:19;;;;;;;1.70;0.80;;;;;;;13.27;100.00;99443.53;5181631;28;20038;-71
2023/11/01 10:52:49;;;;;;;2.92;0.88;;;;;;;13.28;100.00;99452.25;5180137;28;20033;-71
2023/11/01 10:55:21;;;;;;;3.42;0.85;;;;;;;13.32;100.00;99451.09;5183308;28;20036;-71
2023/11/01 10:57:51;;;;;;;1.48;0.60;;;;;;;13.53;100.00;99449.72;5182416;28;20468;-72
2023/11/01 11:00:29;;;;;;;1.73;0.50;;;;;;;13.49;100.00;99445.59;5183219;28;20100;-71
2023/11/01 11:03:19;;;;;;;3.17;0.60;;;;;;;13.51;100.00;99443.72;5180233;28;20556;-71
2023/11/01 11:05:51;;;;;;;1.38;0.50;;;;;;;13.55;100.00;99439.97;5180408;28;20578;-72
2023/11/01 11:08:21;;;;;;;1.70;0.50;;;;;;;13.59;100.00;99441.44;5182853;28;20171;-72
2023/11/01 11:10:52;;;;;;;2.75;0.80;;;;;;;13.61;100.00;99437.75;5180731;28;20509;-71
2023/11/01 11:13:22;;;;;;;2.47;0.70;;;;;;;13.66;100.00;99429.59;5182074;28;20493;-71
2023/11/01 11:15:58;;;;;;;2.13;0.70;;;;;;;13.72;100.00;99426.56;5184246;28;20083;-71
2023/11/01 11:18:52;;;;;;;1.95;0.70;;;;;;;13.65;100.00;99422.66;5181156;28;20311;-72
2023/11/01 11:21:53;;;;;;;3.05;0.70;;;;;;;13.81;100.00;99429.44;5180977;28;20113;-72
2023/11/01 11:24:36;;;;;;;4.28;0.90;;;;;;;13.81;100.00;99412.81;5181127;28;20029;-71
2023/11/01 11:27:26;;;;;;;4.03;1.02;;;;;;;13.92;100.00;99420.81;5181736;28;20056;-71
2023/11/01 11:29:57;;;;;;;2.90;1.08;;;;;;;13.83;100.00;99411.78;5182016;28;20029;-71
2023/11/01 11:32:27;;;;;;;4.57;1.45;;;;;;;13.88;100.00;99404.41;5180603;28;20032;-71
2023/11/01 11:35:17;;;;;;;6.05;1.15;;;;;;;13.88;100.00;99411.47;5180212;28;20478;-71
2023/11/01 11:37:48;;;;;;;4.43;1.10;;;;;;;13.96;100.00;99412.66;5179762;28;20499;-71
2023/11/01 11:40:24;;;;;;;3.45;1.13;;;;;;;14.01;100.00;99399.16;5184660;28;20083;-71
2023/11/01 11:42:54;;;;;;;2.90;0.80;;;;;;;13.96;100.00;99403.91;5179409;28;20603;-72
2023/11/01 11:45:29;;;;;;;3.38;0.60;;;;;;;13.99;100.00;99403.69;5181156;28;20560;-71